Time;durP1;ratioP1;P1;durP2;ratioP2;P2;SDS_P1;SDS_P2;PMS_P1;PMS_P2;Temp;Humidity;BMP_temperature;BMP_pressure;BME280_temperature;BME280_humidity;BME280_pressure;Samples;Min_cycle;Max_cycle;Signal;HPM_P1;HPM_P2
2022/07/21 00:03:06;;;;;;;6.72;5.33;;;;;;;23.37;59.00;100367.14;2886864;81;21033;-86
2022/07/21 00:07:07;;;;;;;10.72;6.17;;;;;;;23.34;58.56;100363.49;2866613;80;21010;-87
2022/07/21 00:11:09;;;;;;;10.30;6.00;;;;;;;23.26;59.53;100369.95;2853415;82;21011;-86
2022/07/21 00:15:14;;;;;;;10.90;6.22;;;;;;;23.14;59.63;100368.36;2800576;83;20993;-86
2022/07/21 00:19:16;;;;;;;7.95;6.10;;;;;;;22.97;60.34;100372.81;2798370;82;20987;-86
2022/07/21 00:23:17;;;;;;;10.70;6.40;;;;;;;22.88;59.91;100378.12;2866585;81;20974;-86
2022/07/21 00:27:19;;;;;;;11.40;6.95;;;;;;;22.81;59.77;100375.94;2865393;82;21008;-86
2022/07/21 00:31:21;;;;;;;10.88;6.80;;;;;;;22.80;59.67;100378.33;2853336;81;21060;-86
2022/07/21 00:35:23;;;;;;;7.92;6.30;;;;;;;22.74;59.24;100376.42;2835733;81;21023;-87
2022/07/21 00:39:24;;;;;;;11.15;7.22;;;;;;;22.58;58.42;100373.56;2848819;81;21545;-86
2022/07/21 00:43:26;;;;;;;19.77;7.80;;;;;;;22.38;60.00;100375.11;2856950;82;21041;-86
2022/07/21 00:47:31;;;;;;;8.05;5.95;;;;;;;22.24;61.36;100368.80;2843365;81;21015;-87
2022/07/21 00:51:33;;;;;;;11.35;7.22;;;;;;;22.13;62.72;100372.59;2823161;82;20941;-86
2022/07/21 00:55:36;;;;;;;9.08;6.08;;;;;;;21.91;63.54;100375.39;2833524;81;21006;-86
2022/07/21 00:59:42;;;;;;;11.08;6.15;;;;;;;21.71;64.44;100381.52;2802292;83;21030;-86
2022/07/21 01:03:44;;;;;;;10.85;7.62;;;;;;;21.62;64.13;100390.80;2826925;83;20998;-86
2022/07/21 01:07:49;;;;;;;8.68;6.50;;;;;;;21.57;63.98;100387.81;2802161;83;21022;-86
2022/07/21 01:11:51;;;;;;;11.33;6.72;;;;;;;21.54;63.84;100387.72;2827793;83;20999;-86
2022/07/21 01:15:53;;;;;;;13.35;6.90;;;;;;;21.51;63.65;100395.70;2802219;83;21070;-86
2022/07/21 01:19:55;;;;;;;8.78;6.65;;;;;;;21.44;63.54;100397.52;2905071;80;21032;-86
2022/07/21 01:23:57;;;;;;;16.23;8.63;;;;;;;21.35;63.66;100404.08;2901171;80;20996;-86
2022/07/21 01:27:59;;;;;;;8.85;6.58;;;;;;;21.25;64.73;100393.59;2911981;80;21387;-86
2022/07/21 01:32:02;;;;;;;9.28;7.55;;;;;;;21.17;65.76;100382.38;2882458;80;21016;-87
2022/07/21 01:36:05;;;;;;;11.85;6.90;;;;;;;21.14;66.45;100378.72;2905893;79;21011;-86
2022/07/21 01:44:28;;;;;;;10.75;7.62;;;;;;;21.14;66.32;100369.78;2898101;80;21547;-87
2022/07/21 01:48:29;;;;;;;13.38;7.55;;;;;;;21.07;66.49;100372.42;2903918;80;21000;-87
2022/07/21 01:52:31;;;;;;;18.52;8.53;;;;;;;21.04;66.30;100378.22;2911154;79;21279;-86
2022/07/21 01:56:35;;;;;;;8.40;7.22;;;;;;;21.01;66.73;100373.17;2913748;79;21012;-87
2022/07/21 02:00:36;;;;;;;10.43;7.65;;;;;;;20.96;66.97;100365.66;2915593;79;21024;-86
2022/07/21 02:04:38;;;;;;;11.90;6.80;;;;;;;20.85;68.09;100357.54;2903967;80;21523;-87
2022/07/21 02:08:42;;;;;;;15.13;7.37;;;;;;;20.87;68.28;100357.33;2907761;80;21008;-87
2022/07/21 02:12:44;;;;;;;13.00;8.73;;;;;;;20.94;67.86;100355.02;2898267;81;20947;-86
2022/07/21 02:16:46;;;;;;;14.73;8.28;;;;;;;21.03;67.63;100362.49;2902243;80;20968;-86
2022/07/21 02:20:48;;;;;;;16.95;7.90;;;;;;;21.12;67.50;100366.73;2915225;79;20996;-86
2022/07/21 02:24:50;;;;;;;19.07;8.88;;;;;;;21.20;67.49;100360.35;2866005;81;21020;-86
2022/07/21 02:28:51;;;;;;;10.53;8.43;;;;;;;21.21;68.18;100359.85;2904136;80;21590;-86
2022/07/21 02:32:53;;;;;;;9.10;7.15;;;;;;;21.20;67.98;100344.66;2888514;80;21521;-85
2022/07/21 02:36:55;;;;;;;15.00;7.72;;;;;;;21.10;68.59;100343.10;2901927;81;21503;-86
2022/07/21 02:40:57;;;;;;;12.18;8.00;;;;;;;21.16;67.70;100336.08;2871488;81;21014;-86
2022/07/21 02:44:58;;;;;;;13.93;8.58;;;;;;;21.15;67.52;100345.23;2874595;81;21523;-86
2022/07/21 02:49:00;;;;;;;21.85;9.55;;;;;;;21.11;67.36;100341.25;2898537;80;21040;-87
2022/07/21 02:53:12;;;;;;;11.53;8.15;;;;;;;21.08;67.58;100342.99;2898746;81;21016;-87
2022/07/21 02:57:13;;;;;;;17.67;9.43;;;;;;;20.94;68.41;100344.20;2898531;80;21048;-86
2022/07/21 03:01:15;;;;;;;23.30;10.55;;;;;;;20.71;69.58;100353.80;2890601;81;21590;-87
2022/07/21 03:05:17;;;;;;;16.93;10.03;;;;;;;20.64;69.37;100359.66;2897126;81;20965;-86
2022/07/21 03:09:18;;;;;;;14.30;7.90;;;;;;;20.59;69.20;100364.80;2897611;81;21064;-87
2022/07/21 03:13:20;;;;;;;16.30;9.23;;;;;;;20.59;69.29;100361.58;2897744;81;20999;-88
2022/07/21 03:17:22;;;;;;;13.53;8.58;;;;;;;20.61;69.36;100359.52;2897484;81;21022;-88
2022/07/21 03:21:24;;;;;;;14.75;9.20;;;;;;;20.66;69.22;100368.41;2879615;81;21017;-86
2022/07/21 03:25:26;;;;;;;82.08;20.80;;;;;;;20.74;69.03;100369.66;2891191;81;21559;-87
2022/07/21 03:29:28;;;;;;;21.48;8.58;;;;;;;20.72;69.75;100362.77;2900363;81;21012;-87
2022/07/21 03:37:35;;;;;;;17.17;10.35;;;;;;;20.52;71.21;100359.32;2948070;79;21054;-87
2022/07/21 03:41:37;;;;;;;14.95;8.83;;;;;;;20.59;70.95;100365.63;2948108;79;21055;-88
2022/07/21 03:45:38;;;;;;;16.15;9.28;;;;;;;20.69;70.37;100368.87;2955333;79;20974;-87
2022/07/21 03:49:40;;;;;;;18.25;11.30;;;;;;;20.75;70.84;100369.13;2976375;78;20977;-88
2022/07/21 03:53:41;;;;;;;27.40;9.73;;;;;;;20.78;70.62;100364.69;2954947;78;20969;-88
2022/07/21 03:57:50;;;;;;;17.23;9.83;;;;;;;20.86;70.11;100370.03;2925060;79;20945;-88
2022/07/21 04:01:52;;;;;;;17.52;8.63;;;;;;;20.93;70.00;100367.37;2951337;79;21424;-88
2022/07/21 04:05:53;;;;;;;100.65;24.10;;;;;;;20.98;70.14;100372.53;2963322;78;21040;-85
2022/07/21 04:09:55;;;;;;;13.05;8.88;;;;;;;21.01;70.24;100388.89;2886954;79;20993;-86
2022/07/21 04:13:57;;;;;;;13.20;9.08;;;;;;;21.11;70.49;100396.69;2879558;80;20996;-86
2022/07/21 04:17:59;;;;;;;21.70;9.40;;;;;;;21.15;71.05;100395.27;2835432;81;21611;-83
2022/07/21 04:22:00;;;;;;;12.68;8.60;;;;;;;21.21;71.12;100398.54;2765691;82;21026;-85
2022/07/21 04:26:02;;;;;;;20.65;8.28;;;;;;;21.42;70.99;100392.82;2848726;82;20999;-85
2022/07/21 04:30:06;;;;;;;22.30;10.45;;;;;;;21.92;69.85;100396.02;2855387;82;20986;-86
2022/07/21 04:34:07;;;;;;;17.32;9.70;;;;;;;22.54;68.32;100394.30;2824315;82;21074;-85
2022/07/21 04:38:10;;;;;;;18.82;8.35;;;;;;;23.14;66.16;100384.63;2839482;83;21003;-87
2022/07/21 04:42:11;;;;;;;9.98;5.85;;;;;;;23.88;64.12;100381.95;2858800;82;21006;-88
2022/07/21 04:46:13;;;;;;;10.65;5.97;;;;;;;24.73;61.45;100379.34;2851874;83;21381;-87
2022/07/21 04:50:19;;;;;;;12.80;6.67;;;;;;;25.44;59.58;100374.70;2883838;81;20999;-88
2022/07/21 04:54:20;;;;;;;11.10;6.37;;;;;;;26.16;58.29;100375.30;2879103;82;21542;-87
2022/07/21 04:58:23;;;;;;;28.90;9.28;;;;;;;26.76;57.15;100376.45;2851457;82;21478;-88
2022/07/21 05:02:24;;;;;;;8.38;6.80;;;;;;;27.16;56.01;100374.52;2851861;82;21608;-88
2022/07/21 05:06:26;;;;;;;10.43;5.67;;;;;;;27.45;54.75;100370.56;2851868;82;20990;-87
2022/07/21 05:10:27;;;;;;;10.20;6.08;;;;;;;27.78;54.45;100365.60;2833791;82;21030;-88
2022/07/21 05:14:29;;;;;;;23.70;7.40;;;;;;;28.05;54.52;100367.84;2824419;82;20994;-88
2022/07/21 05:18:30;;;;;;;8.38;5.35;;;;;;;28.56;52.77;100372.18;2848425;83;21015;-88
2022/07/21 05:22:32;;;;;;;6.42;5.42;;;;;;;28.93;52.54;100373.17;2787126;83;21121;-88
2022/07/21 05:26:34;;;;;;;6.37;4.97;;;;;;;29.74;50.65;100364.34;2847541;83;21031;-88
2022/07/21 05:30:35;;;;;;;22.73;7.62;;;;;;;29.74;50.65;100364.34;2780822;82;20968;-88
2022/07/21 05:34:37;;;;;;;6.53;5.30;;;;;;;30.20;50.24;100363.31;2825261;83;20992;-89
2022/07/21 05:38:39;;;;;;;10.93;5.55;;;;;;;30.62;49.68;100367.39;2825523;82;21047;-88
2022/07/21 05:42:41;;;;;;;13.22;4.40;;;;;;;30.93;48.71;100362.18;2875160;81;21003;-88
2022/07/21 05:46:42;;;;;;;7.75;4.45;;;;;;;31.03;48.47;100368.31;2855920;81;21395;-88
2022/07/21 05:50:44;;;;;;;10.43;5.00;;;;;;;31.15;47.94;100366.23;2856646;83;21018;-88
2022/07/21 05:54:46;;;;;;;6.10;4.17;;;;;;;31.18;47.06;100367.08;2857935;82;20994;-88
2022/07/21 05:58:48;;;;;;;7.58;4.10;;;;;;;31.58;45.97;100362.19;2828956;81;21509;-89
2022/07/21 06:02:50;;;;;;;9.53;4.45;;;;;;;31.72;45.96;100357.57;2829960;83;21054;-88
2022/07/21 06:06:52;;;;;;;8.43;4.85;;;;;;;31.81;45.70;100360.67;2833476;83;20987;-88
2022/07/21 06:10:53;;;;;;;31.25;26.25;;;;;;;31.82;45.95;100367.30;2875330;81;21055;-88
2022/07/21 06:14:55;;;;;;;9.35;5.55;;;;;;;32.24;45.21;100364.20;2820348;83;21884;-88
2022/07/21 06:18:57;;;;;;;11.22;5.75;;;;;;;32.23;45.19;100366.67;2853477;82;21026;-88
2022/07/21 06:22:58;;;;;;;18.67;10.70;;;;;;;32.61;44.88;100364.58;2858507;82;21517;-88
2022/07/21 06:27:00;;;;;;;19.23;8.73;;;;;;;32.89;44.59;100356.95;2855614;83;21066;-88
2022/07/21 06:31:01;;;;;;;18.73;14.45;;;;;;;32.97;43.67;100349.23;2847333;82;21012;-88
2022/07/21 06:35:04;;;;;;;11.70;10.18;;;;;;;33.03;44.48;100342.08;2809660;83;21074;-89
2022/07/21 06:39:06;;;;;;;12.43;7.12;;;;;;;33.19;43.80;100338.75;2853110;83;21580;-89
2022/07/21 06:43:07;;;;;;;10.10;5.37;;;;;;;33.39;43.67;100334.89;2853832;82;21010;-88
2022/07/21 06:47:08;;;;;;;11.18;5.40;;;;;;;33.60;42.59;100339.81;2853822;83;21557;-88
2022/07/21 06:51:10;;;;;;;9.90;4.95;;;;;;;33.72;42.49;100339.53;2854487;83;21649;-89
2022/07/21 06:55:11;;;;;;;10.53;5.67;;;;;;;33.92;42.30;100341.38;2854138;82;21015;-89
2022/07/21 06:59:12;;;;;;;7.72;4.15;;;;;;;34.10;41.95;100342.73;2853195;82;21003;-88
2022/07/21 07:03:14;;;;;;;6.00;3.80;;;;;;;34.35;42.30;100337.34;2853977;82;21023;-88
2022/07/21 07:07:15;;;;;;;5.67;4.33;;;;;;;34.64;41.30;100340.80;2854350;82;21046;-88
2022/07/21 07:11:16;;;;;;;12.50;5.75;;;;;;;34.69;40.41;100329.16;2852743;82;21002;-89
2022/07/21 07:15:18;;;;;;;6.45;3.55;;;;;;;34.86;40.88;100327.36;2806644;83;20990;-89
2022/07/21 07:19:19;;;;;;;8.23;4.08;;;;;;;34.83;40.68;100335.39;2851301;83;21003;-89
2022/07/21 07:23:20;;;;;;;7.50;4.30;;;;;;;35.11;40.28;100334.38;2851291;83;21527;-88
2022/07/21 07:27:22;;;;;;;198.97;40.08;;;;;;;35.29;39.67;100324.52;2793793;83;24395;-89
2022/07/21 07:31:23;;;;;;;7.90;5.05;;;;;;;35.66;40.10;100323.05;2833657;83;21007;-88
2022/07/21 07:35:24;;;;;;;7.87;5.12;;;;;;;35.74;39.60;100322.96;2853059;82;21023;-88
2022/07/21 07:39:25;;;;;;;5.45;3.80;;;;;;;35.93;39.74;100318.03;2823819;82;21444;-87
2022/07/21 07:43:27;;;;;;;6.87;4.15;;;;;;;36.24;38.68;100317.63;2853932;82;20995;-87
2022/07/21 07:47:28;;;;;;;9.83;4.12;;;;;;;36.41;38.33;100311.01;2836456;83;21054;-87
2022/07/21 07:51:29;;;;;;;10.15;4.37;;;;;;;36.35;37.76;100307.23;2854520;82;21015;-87
2022/07/21 07:55:30;;;;;;;4.72;3.90;;;;;;;36.56;37.86;100300.86;2847092;83;21035;-86
2022/07/21 07:59:31;;;;;;;9.35;4.42;;;;;;;36.51;38.21;100301.72;2854941;82;21054;-87
2022/07/21 08:03:32;;;;;;;5.37;3.55;;;;;;;36.62;38.20;100305.77;2851124;82;21031;-87
2022/07/21 08:07:33;;;;;;;14.45;3.17;;;;;;;36.95;37.74;100293.27;2784111;83;20999;-86
2022/07/21 08:11:35;;;;;;;9.40;4.65;;;;;;;36.97;36.44;100295.20;2822261;82;21413;-87
2022/07/21 08:15:37;;;;;;;7.33;3.95;;;;;;;37.06;37.15;100289.23;2854563;82;21011;-87
2022/07/21 08:19:39;;;;;;;7.47;4.08;;;;;;;37.15;37.44;100291.58;2854569;82;21011;-86
2022/07/21 08:23:40;;;;;;;7.28;4.33;;;;;;;37.28;37.13;100291.88;2797575;83;21019;-86
2022/07/21 08:27:42;;;;;;;7.90;3.80;;;;;;;37.58;35.72;100286.91;2862381;81;21010;-86
2022/07/21 08:31:43;;;;;;;6.03;2.83;;;;;;;37.62;36.00;100287.09;2815871;83;21019;-87
2022/07/21 08:35:44;;;;;;;6.03;4.30;;;;;;;37.88;36.06;100283.20;2858672;81;21023;-87
2022/07/21 08:39:47;;;;;;;6.50;3.90;;;;;;;37.99;35.28;100299.10;2854880;82;21567;-86
2022/07/21 08:43:51;;;;;;;6.57;4.73;;;;;;;38.13;35.49;100294.92;2868566;82;21421;-87
2022/07/21 08:47:55;;;;;;;16.67;5.37;;;;;;;38.13;35.43;100278.27;2824424;81;20960;-86
2022/07/21 08:51:56;;;;;;;6.30;4.28;;;;;;;37.96;35.32;100276.94;2834664;83;21034;-86
2022/07/21 08:55:57;;;;;;;3.98;3.05;;;;;;;37.96;34.80;100277.49;2831676;83;21018;-86
2022/07/21 08:59:58;;;;;;;8.65;3.40;;;;;;;38.18;35.04;100284.25;2812108;83;21141;-87
2022/07/21 09:04:27;;;;;;;8.23;4.00;;;;;;;38.19;34.73;100281.72;2861212;82;21069;-86
2022/07/21 09:08:32;;;;;;;7.33;3.35;;;;;;;38.02;35.44;100279.62;2816464;83;21077;-86
2022/07/21 09:12:39;;;;;;;7.47;3.65;;;;;;;37.91;34.87;100277.03;2851527;82;21038;-87
2022/07/21 09:16:47;;;;;;;10.38;3.20;;;;;;;38.03;35.47;100267.38;2855562;82;21006;-86
2022/07/21 09:20:52;;;;;;;16.37;5.25;;;;;;;37.98;35.55;100264.15;2854835;82;21006;-87
2022/07/21 09:24:54;;;;;;;7.42;3.08;;;;;;;38.14;35.29;100259.09;2839898;83;21003;-86
2022/07/21 09:29:00;;;;;;;8.43;4.10;;;;;;;38.04;35.05;100252.37;2866911;82;21005;-86
2022/07/21 09:33:07;;;;;;;3.83;3.15;;;;;;;38.08;35.46;100249.22;2825789;82;21071;-87
2022/07/21 09:37:09;;;;;;;12.75;6.00;;;;;;;38.07;35.10;100248.96;2860591;82;20997;-88
2022/07/21 09:41:16;;;;;;;5.20;3.12;;;;;;;38.09;35.98;100242.52;2835171;83;21648;-88
2022/07/21 09:45:18;;;;;;;5.53;3.33;;;;;;;38.10;35.49;100251.11;2847978;81;21026;-88
2022/07/21 09:49:25;;;;;;;8.65;4.47;;;;;;;38.26;35.72;100244.06;2858488;81;21529;-87
2022/07/21 10:02:26;;;;;;;5.70;3.45;;;;;;;38.68;34.35;100243.06;2798287;81;21027;-86
2022/07/21 10:06:31;;;;;;;4.45;3.45;;;;;;;38.82;35.01;100236.05;2771413;83;21019;-88
2022/07/21 10:10:33;;;;;;;5.35;3.25;;;;;;;38.89;34.69;100248.08;2768085;83;21027;-88
2022/07/21 10:14:36;;;;;;;7.10;2.80;;;;;;;38.97;33.92;100244.58;2794497;83;20991;-88
2022/07/21 10:18:59;;;;;;;6.27;3.90;;;;;;;39.00;34.33;100239.17;2801558;81;21042;-87
2022/07/21 10:23:18;;;;;;;31.20;7.30;;;;;;;38.97;35.41;100235.65;2742797;85;21074;-87
2022/07/21 10:27:20;;;;;;;21.68;6.97;;;;;;;39.19;34.83;100231.16;2746060;85;21027;-86
2022/07/21 10:31:25;;;;;;;4.40;2.92;;;;;;;39.30;34.79;100223.34;2746753;85;21374;-86
2022/07/21 10:35:30;;;;;;;4.37;3.47;;;;;;;39.24;33.46;100221.86;2718465;85;21083;-88
2022/07/21 10:39:35;;;;;;;5.72;3.27;;;;;;;39.17;33.07;100217.34;2746377;85;21191;-88
2022/07/21 10:43:38;;;;;;;4.72;3.12;;;;;;;39.20;33.39;100213.91;2739086;84;21319;-87
2022/07/21 10:47:41;;;;;;;6.43;2.80;;;;;;;39.31;34.14;100209.70;2753010;84;20986;-88
2022/07/21 10:51:42;;;;;;;3.35;2.20;;;;;;;39.33;31.99;100217.71;2756057;83;20975;-88
2022/07/21 10:55:53;;;;;;;9.78;2.47;;;;;;;39.46;32.02;100210.41;2748114;85;21006;-86
2022/07/21 11:00:29;;;;;;;3.87;2.35;;;;;;;39.41;31.40;100212.20;2737474;84;20996;-87
2022/07/21 11:04:31;;;;;;;3.83;3.08;;;;;;;39.38;31.62;100204.52;2778579;83;21020;-89
2022/07/21 11:08:39;;;;;;;3.20;2.45;;;;;;;39.34;31.86;100208.22;2782183;84;21058;-89
2022/07/21 11:12:58;;;;;;;3.47;1.95;;;;;;;39.36;31.90;100197.59;2777287;83;21031;-91
2022/07/21 11:17:02;;;;;;;3.22;2.08;;;;;;;39.37;32.64;100197.84;2737907;86;21560;-90
2022/07/21 11:21:12;;;;;;;6.65;3.17;;;;;;;39.38;31.92;100203.13;2762064;84;21080;-91
2022/07/21 11:25:14;;;;;;;5.00;2.87;;;;;;;39.41;31.68;100194.13;2758179;84;21027;-88
2022/07/21 11:29:15;;;;;;;4.53;3.10;;;;;;;39.46;31.53;100196.50;2769200;84;21061;-90
2022/07/21 11:33:23;;;;;;;3.58;2.22;;;;;;;39.33;31.78;100187.12;2763159;84;21003;-90
2022/07/21 11:37:44;;;;;;;4.08;3.05;;;;;;;39.33;32.15;100180.16;2768827;84;21100;-90
2022/07/21 11:41:45;;;;;;;6.65;3.05;;;;;;;39.47;31.70;100173.09;2821612;81;21121;-89
2022/07/21 11:45:54;;;;;;;4.05;2.37;;;;;;;39.56;32.03;100169.77;2856241;81;21003;-88
2022/07/21 11:49:58;;;;;;;5.30;2.77;;;;;;;39.62;33.34;100167.06;2854470;81;20973;-88
2022/07/21 11:54:00;;;;;;;6.78;2.40;;;;;;;39.73;32.43;100158.41;2848357;81;20979;-88
2022/07/21 11:58:01;;;;;;;3.75;2.80;;;;;;;39.77;32.67;100155.21;2852869;81;21030;-89
2022/07/21 12:02:09;;;;;;;14.00;4.70;;;;;;;39.68;31.76;100144.08;2824067;81;21014;-88
2022/07/21 12:06:10;;;;;;;4.92;2.83;;;;;;;39.69;31.69;100147.10;2822002;81;21416;-89
2022/07/21 12:10:16;;;;;;;5.42;2.67;;;;;;;39.41;32.63;100151.59;2853278;81;21025;-89
2022/07/21 12:14:18;;;;;;;9.05;3.12;;;;;;;39.25;31.94;100141.45;2851036;80;20937;-88
2022/07/21 12:18:25;;;;;;;10.23;3.47;;;;;;;39.13;33.19;100145.70;2784759;84;20979;-87
2022/07/21 12:22:44;;;;;;;5.72;3.00;;;;;;;39.37;32.72;100144.45;2723824;85;21016;-87
2022/07/21 12:26:46;;;;;;;7.40;3.55;;;;;;;39.50;32.52;100138.50;2761458;85;21035;-88
2022/07/21 12:30:50;;;;;;;11.08;3.55;;;;;;;39.44;32.47;100138.42;2789806;84;21006;-86
2022/07/21 12:34:54;;;;;;;10.18;3.35;;;;;;;39.22;32.21;100141.55;2794367;82;21008;-87
2022/07/21 12:38:55;;;;;;;15.32;3.80;;;;;;;39.15;31.87;100131.45;2802485;82;21035;-88
2022/07/21 12:43:18;;;;;;;8.03;3.35;;;;;;;39.31;32.32;100130.44;2782357;83;21527;-90
2022/07/21 12:47:22;;;;;;;11.60;3.90;;;;;;;39.43;32.40;100127.05;2769983;83;20952;-87
2022/07/21 12:51:24;;;;;;;11.80;3.33;;;;;;;39.63;33.39;100115.83;2756852;84;21004;-87
2022/07/21 12:55:25;;;;;;;18.35;6.55;;;;;;;39.98;33.23;100117.80;2812170;83;20971;-87
2022/07/21 12:59:27;;;;;;;5.00;3.65;;;;;;;40.23;32.80;100116.70;2774282;83;20996;-87
2022/07/21 13:03:30;;;;;;;3.47;2.95;;;;;;;40.19;32.61;100124.89;2725971;85;21068;-87
2022/07/21 13:07:32;;;;;;;3.60;3.22;;;;;;;40.13;32.15;100108.13;2766112;84;21056;-87
2022/07/21 13:11:33;;;;;;;3.47;3.15;;;;;;;40.08;32.51;100113.84;2732967;84;21111;-87
2022/07/21 13:15:35;;;;;;;3.52;2.60;;;;;;;39.98;31.89;100109.44;2766748;84;21141;-86
2022/07/21 13:19:36;;;;;;;12.03;3.62;;;;;;;39.88;32.00;100105.03;2763912;83;21021;-89
2022/07/21 13:23:38;;;;;;;5.78;3.30;;;;;;;39.95;32.69;100096.19;2756975;84;21051;-90
2022/07/21 13:27:39;;;;;;;4.72;2.67;;;;;;;40.27;32.31;100103.18;2761351;84;21036;-88
2022/07/21 13:31:41;;;;;;;6.03;3.45;;;;;;;40.45;31.63;100101.73;2786191;83;21026;-88
2022/07/21 13:35:43;;;;;;;2.87;2.55;;;;;;;40.60;32.33;100090.63;2735601;84;21036;-88
2022/07/21 13:39:45;;;;;;;3.97;3.00;;;;;;;40.62;31.04;100083.31;2758662;83;21395;-90
2022/07/21 13:43:46;;;;;;;5.10;2.92;;;;;;;40.64;31.31;100081.83;2758346;84;21007;-89
2022/07/21 13:47:47;;;;;;;3.87;2.72;;;;;;;40.61;30.65;100073.31;2745947;84;21024;-88
2022/07/21 13:51:49;;;;;;;13.25;3.58;;;;;;;40.43;31.23;100085.13;2758238;84;21036;-86
2022/07/21 13:55:53;;;;;;;8.05;3.22;;;;;;;40.38;31.67;100076.37;2779008;84;21063;-87
2022/07/21 13:59:54;;;;;;;3.87;2.83;;;;;;;40.37;31.30;100073.34;2764123;84;21044;-87
2022/07/21 14:03:55;;;;;;;7.42;3.10;;;;;;;40.37;31.24;100067.77;2766038;84;21072;-89
2022/07/21 14:07:57;;;;;;;6.50;2.77;;;;;;;40.49;31.21;100055.36;2807420;83;21035;-91
2022/07/21 14:11:58;;;;;;;2.95;2.60;;;;;;;40.80;31.17;100065.97;2830611;82;21482;-90
2022/07/21 14:16:02;;;;;;;3.83;2.85;;;;;;;40.87;30.59;100061.23;2808919;83;21015;-88
2022/07/21 14:20:04;;;;;;;4.72;3.25;;;;;;;40.75;30.74;100073.94;2834797;82;20999;-91
2022/07/21 14:36:39;;;;;;;3.10;2.80;;;;;;;39.83;32.02;100055.94;2840641;81;21063;-84
2022/07/21 14:40:40;;;;;;;5.85;2.90;;;;;;;39.53;31.61;100057.16;2829170;82;20957;-86
2022/07/21 14:44:45;;;;;;;3.98;3.10;;;;;;;39.37;32.32;100052.67;2773491;83;20993;-85
2022/07/21 14:48:46;;;;;;;3.20;2.87;;;;;;;39.10;32.17;100050.39;2846751;82;20952;-84
2022/07/21 14:52:48;;;;;;;7.53;3.25;;;;;;;38.97;32.49;100054.16;2848001;81;20995;-85
2022/07/21 14:56:49;;;;;;;3.47;3.17;;;;;;;38.89;33.03;100039.06;2792329;83;21031;-85
2022/07/21 15:00:57;;;;;;;48.23;9.40;;;;;;;38.65;33.23;100049.20;2848813;82;21600;-85
2022/07/21 15:04:59;;;;;;;3.95;3.02;;;;;;;38.40;33.54;100045.40;2824429;81;21000;-85
2022/07/21 15:09:00;;;;;;;11.50;3.00;;;;;;;38.26;33.51;100043.31;2825640;82;20983;-85
2022/07/21 15:13:01;;;;;;;3.85;2.65;;;;;;;38.22;33.79;100048.68;2821704;83;20991;-85
2022/07/21 15:17:03;;;;;;;4.45;3.00;;;;;;;38.25;34.02;100041.09;2845692;83;20995;-85
2022/07/21 15:21:05;;;;;;;7.37;3.58;;;;;;;38.27;34.13;100040.20;2844797;82;20999;-85
2022/07/21 15:25:10;;;;;;;3.77;2.83;;;;;;;38.34;34.25;100038.95;2785407;83;21008;-87
2022/07/21 15:29:11;;;;;;;5.25;3.52;;;;;;;38.49;33.88;100034.36;2761939;85;20974;-85
2022/07/21 15:33:13;;;;;;;7.40;3.30;;;;;;;38.61;33.72;100030.16;2771068;84;21009;-85
2022/07/21 15:37:17;;;;;;;9.65;3.25;;;;;;;38.76;33.26;100029.72;2769575;84;20997;-83
2022/07/21 15:41:19;;;;;;;4.95;3.08;;;;;;;38.85;33.48;100027.77;2770708;84;20986;-87
2022/07/21 15:45:20;;;;;;;4.80;2.62;;;;;;;38.83;33.64;100028.66;2749210;82;20959;-85
2022/07/21 15:49:22;;;;;;;4.60;3.58;;;;;;;38.70;33.58;100022.09;2766551;84;20968;-85
2022/07/21 15:53:23;;;;;;;5.17;2.50;;;;;;;38.62;34.14;100022.91;2735927;85;20980;-85
2022/07/21 15:57:25;;;;;;;87.75;20.62;;;;;;;38.55;34.08;100024.76;2734117;85;20984;-85
2022/07/21 16:01:28;;;;;;;4.62;3.47;;;;;;;38.58;34.85;100020.50;2741831;83;20937;-86
2022/07/21 16:05:29;;;;;;;67.20;12.00;;;;;;;38.66;34.31;100016.94;2738890;85;21024;-87
2022/07/21 16:09:32;;;;;;;8.53;4.25;;;;;;;38.80;34.36;100007.08;2690054;84;21023;-90
2022/07/21 16:13:35;;;;;;;11.10;4.25;;;;;;;38.77;35.10;100003.56;2718682;86;21015;-82
2022/07/21 16:17:38;;;;;;;4.03;3.35;;;;;;;38.60;33.60;100008.48;2750279;84;21048;-85
2022/07/21 16:21:39;;;;;;;6.03;3.52;;;;;;;38.34;33.49;100011.98;2783675;82;20987;-85
2022/07/21 16:25:40;;;;;;;7.60;3.95;;;;;;;38.13;34.24;100020.06;2814471;82;21054;-86
2022/07/21 16:29:42;;;;;;;9.88;3.85;;;;;;;37.85;34.58;100017.41;2798174;83;20963;-87
2022/07/21 16:33:43;;;;;;;7.95;4.28;;;;;;;37.65;34.94;100023.73;2816851;82;21067;-86
2022/07/21 16:37:52;;;;;;;7.28;3.95;;;;;;;37.51;35.38;100025.19;2825081;82;20999;-89
2022/07/21 16:41:56;;;;;;;4.78;3.02;;;;;;;37.10;35.24;100024.15;2837866;82;20941;-89
2022/07/21 16:45:57;;;;;;;10.65;3.85;;;;;;;36.98;35.38;100026.05;2853988;82;21033;-84
2022/07/21 16:49:59;;;;;;;17.23;4.60;;;;;;;36.96;35.82;100028.31;2832409;82;20960;-86
2022/07/21 16:54:00;;;;;;;15.00;5.60;;;;;;;36.96;36.16;100030.28;2851314;82;20969;-87
2022/07/21 16:58:01;;;;;;;18.73;5.83;;;;;;;36.85;36.82;100026.87;2851562;80;20992;-87
2022/07/21 17:02:03;;;;;;;9.60;7.28;;;;;;;36.29;38.31;100053.18;2857763;82;21002;-87
2022/07/21 17:06:05;;;;;;;13.38;6.75;;;;;;;35.94;39.03;100062.34;2850587;82;21571;-84
2022/07/21 17:10:07;;;;;;;9.75;6.10;;;;;;;35.52;40.19;100062.16;2737943;84;20988;-89
2022/07/21 17:14:09;;;;;;;17.85;5.90;;;;;;;35.36;40.74;100080.31;2827150;82;21000;-85
2022/07/21 17:18:11;;;;;;;5.78;5.17;;;;;;;35.25;41.02;100087.13;2819676;82;21007;-85
2022/07/21 17:22:12;;;;;;;12.05;5.97;;;;;;;35.17;41.47;100094.13;2829560;84;20984;-86
2022/07/21 17:26:14;;;;;;;11.85;6.85;;;;;;;35.05;41.55;100097.87;2786922;84;20955;-85
2022/07/21 17:30:15;;;;;;;6.10;5.45;;;;;;;34.76;41.72;100098.17;2757835;85;20987;-86
2022/07/21 17:34:17;;;;;;;6.03;5.37;;;;;;;34.59;42.21;100114.67;2756004;83;21056;-84
2022/07/21 17:38:20;;;;;;;6.10;5.50;;;;;;;34.23;42.58;100123.25;2757537;84;21024;-86
2022/07/21 17:42:21;;;;;;;9.40;6.40;;;;;;;33.88;43.15;100125.95;2735698;85;21012;-87
2022/07/21 17:46:22;;;;;;;9.10;5.10;;;;;;;33.55;43.71;100125.63;2716341;85;21012;-88
2022/07/21 17:50:23;;;;;;;8.70;5.60;;;;;;;33.33;44.35;100125.98;2772284;84;21091;-86
2022/07/21 17:54:25;;;;;;;7.70;6.55;;;;;;;33.07;44.75;100132.98;2758553;84;21012;-86
2022/07/21 17:58:44;;;;;;;11.43;6.62;;;;;;;32.86;45.22;100141.28;2741889;86;21020;-87
2022/07/21 18:02:47;;;;;;;8.73;4.58;;;;;;;32.41;46.38;100130.59;2758696;84;21008;-85
2022/07/21 18:06:48;;;;;;;29.77;9.23;;;;;;;31.87;47.24;100147.89;2805669;83;20964;-87
2022/07/21 18:10:49;;;;;;;14.73;7.67;;;;;;;31.61;47.66;100154.12;2805735;83;21846;-89
2022/07/21 18:14:50;;;;;;;21.57;6.25;;;;;;;31.27;48.36;100160.03;2801262;83;21012;-87
2022/07/21 18:18:51;;;;;;;6.03;4.62;;;;;;;30.99;49.00;100165.34;2799493;84;20964;-85
2022/07/21 18:22:53;;;;;;;9.68;5.40;;;;;;;30.76;49.72;100177.01;2743121;84;21007;-86
2022/07/21 18:26:54;;;;;;;7.85;4.97;;;;;;;30.50;50.95;100180.91;2787882;84;21003;-88
2022/07/21 18:30:55;;;;;;;12.00;5.00;;;;;;;30.26;52.23;100195.51;2793334;83;21074;-88
2022/07/21 18:34:57;;;;;;;11.97;5.85;;;;;;;30.01;53.39;100197.70;2811166;81;21000;-85
2022/07/21 18:38:58;;;;;;;10.13;7.05;;;;;;;29.84;54.67;100213.41;2843131;82;20970;-87
2022/07/21 18:42:59;;;;;;;7.90;6.50;;;;;;;29.64;55.55;100207.44;2791290;82;21021;-86
2022/07/21 18:47:06;;;;;;;10.43;5.87;;;;;;;29.44;56.22;100227.17;2843271;82;20940;-87
2022/07/21 18:51:07;;;;;;;7.42;5.85;;;;;;;29.21;56.59;100238.61;2856231;82;20977;-88
2022/07/21 18:55:16;;;;;;;12.03;5.55;;;;;;;29.04;56.46;100239.17;2847279;82;20990;-85
2022/07/21 18:59:14;;;;;;;10.40;5.78;;;;;;;28.88;56.38;100256.72;2855171;82;21004;-88
2022/07/21 19:03:16;;;;;;;12.73;5.22;;;;;;;28.68;55.81;100245.41;2811548;83;21003;-86
2022/07/21 19:07:19;;;;;;;6.92;4.83;;;;;;;28.52;55.17;100272.53;2830072;83;20998;-87
2022/07/21 19:11:20;;;;;;;7.22;4.55;;;;;;;28.38;55.22;100274.72;2844458;82;21038;-87
2022/07/21 19:15:21;;;;;;;8.65;4.62;;;;;;;28.28;55.43;100296.41;2834338;82;20992;-84